SJF2001 EDDN-LOWL
Flight info
| Callsign | SJF2001 |
|---|---|
| Flight time | 0h 35m |
| Altitude | 25000 |
| Route | RODIS1G/28 RODIS L604 LALIN/N0419F240 DCT SELAR DCT AKIMA AKIMA2K |
| Aircraft | A320/M-DGVW/C |
Departure
| Time | 2026-04-16 14:10 |
|---|---|
| Airport | Nuremberg Airport (EDDN) |
Arrival
| Time | 2026-04-16 14:46 |
|---|---|
| Airport | Linz-Hörsching Airport (LOWL) |
| Time | Latitude | Longitude | Altitude | Speed | Heading |
|---|---|---|---|---|---|
| 2026-04-16 13:55 | 49.49587 | 11.08272 | 1029 ft | 0 kts | 188° |
| 2026-04-16 14:07 | 49.49578 | 11.08270 | 1029 ft | 6 kts | 188° |
| 2026-04-16 14:07 | 49.49546 | 11.08316 | 1029 ft | 11 kts | 86° |
| 2026-04-16 14:07 | 49.49606 | 11.08392 | 1028 ft | 12 kts | 57° |
| 2026-04-16 14:07 | 49.49604 | 11.08545 | 1029 ft | 17 kts | 98° |
| 2026-04-16 14:08 | 49.49586 | 11.08752 | 1032 ft | 22 kts | 98° |
| 2026-04-16 14:08 | 49.49562 | 11.08995 | 1038 ft | 24 kts | 98° |
| 2026-04-16 14:08 | 49.49538 | 11.09236 | 1046 ft | 22 kts | 98° |
| 2026-04-16 14:08 | 49.49567 | 11.09427 | 1051 ft | 18 kts | 54° |
| 2026-04-16 14:09 | 49.49658 | 11.09544 | 1056 ft | 16 kts | 357° |
| 2026-04-16 14:09 | 49.49711 | 11.09363 | 1052 ft | 36 kts | 278° |
| 2026-04-16 14:09 | 49.49782 | 11.08582 | 1032 ft | 109 kts | 278° |
| 2026-04-16 14:09 | 49.49928 | 11.07172 | 1052 ft | 157 kts | 279° |
| 2026-04-16 14:10 | 49.50109 | 11.05356 | 1280 ft | 183 kts | 277° |
| 2026-04-16 14:10 | 49.50288 | 11.03384 | 1946 ft | 185 kts | 278° |
| 2026-04-16 14:10 | 49.50478 | 11.01442 | 2568 ft | 193 kts | 279° |
| 2026-04-16 14:10 | 49.50693 | 10.99273 | 2905 ft | 218 kts | 279° |
| 2026-04-16 14:11 | 49.50935 | 10.96830 | 3436 ft | 235 kts | 279° |
| 2026-04-16 14:11 | 49.51316 | 10.94328 | 4015 ft | 253 kts | 297° |
| 2026-04-16 14:11 | 49.52560 | 10.92360 | 4816 ft | 262 kts | 333° |
| 2026-04-16 14:11 | 49.54313 | 10.91694 | 5708 ft | 266 kts | 355° |
| 2026-04-16 14:12 | 49.56178 | 10.91721 | 6627 ft | 270 kts | 2° |
| 2026-04-16 14:12 | 49.58061 | 10.91988 | 7508 ft | 273 kts | 4° |
| 2026-04-16 14:12 | 49.59958 | 10.92283 | 8394 ft | 276 kts | 4° |
| 2026-04-16 14:12 | 49.61878 | 10.92525 | 9273 ft | 278 kts | 2° |
| 2026-04-16 14:13 | 49.63815 | 10.92699 | 10142 ft | 280 kts | 1° |
| 2026-04-16 14:13 | 49.65786 | 10.92953 | 10668 ft | 295 kts | 12° |
| 2026-04-16 14:13 | 49.67712 | 10.94353 | 10886 ft | 322 kts | 37° |
| 2026-04-16 14:13 | 49.69193 | 10.97105 | 11067 ft | 348 kts | 63° |
| 2026-04-16 14:14 | 49.69767 | 11.00808 | 11565 ft | 362 kts | 88° |
| 2026-04-16 14:14 | 49.69641 | 11.04723 | 12193 ft | 369 kts | 93° |
| 2026-04-16 14:14 | 49.69446 | 11.08704 | 12866 ft | 374 kts | 94° |
| 2026-04-16 14:14 | 49.69230 | 11.12734 | 13530 ft | 379 kts | 94° |
| 2026-04-16 14:15 | 49.68996 | 11.16818 | 14168 ft | 384 kts | 96° |
| 2026-04-16 14:15 | 49.68447 | 11.20820 | 14729 ft | 390 kts | 107° |
| 2026-04-16 14:15 | 49.67401 | 11.24758 | 15291 ft | 394 kts | 118° |
| 2026-04-16 14:15 | 49.66064 | 11.28492 | 15852 ft | 399 kts | 119° |
| 2026-04-16 14:16 | 49.64727 | 11.32199 | 16418 ft | 403 kts | 120° |
| 2026-04-16 14:16 | 49.63358 | 11.35998 | 17001 ft | 408 kts | 120° |
| 2026-04-16 14:16 | 49.61973 | 11.39845 | 17575 ft | 412 kts | 120° |
| 2026-04-16 14:16 | 49.60576 | 11.43731 | 18124 ft | 417 kts | 120° |
| 2026-04-16 14:17 | 49.59163 | 11.47667 | 18653 ft | 421 kts | 120° |
| 2026-04-16 14:17 | 49.57737 | 11.51635 | 19145 ft | 425 kts | 120° |
| 2026-04-16 14:17 | 49.56406 | 11.55790 | 19648 ft | 430 kts | 112° |
| 2026-04-16 14:17 | 49.55408 | 11.60098 | 20151 ft | 434 kts | 109° |
| 2026-04-16 14:18 | 49.54413 | 11.64503 | 20655 ft | 437 kts | 109° |
| 2026-04-16 14:18 | 49.53409 | 11.68932 | 21141 ft | 440 kts | 109° |
| 2026-04-16 14:18 | 49.52393 | 11.73389 | 21605 ft | 443 kts | 109° |
| 2026-04-16 14:18 | 49.51365 | 11.77881 | 22061 ft | 447 kts | 109° |
| 2026-04-16 14:19 | 49.50324 | 11.82422 | 22509 ft | 450 kts | 109° |
| 2026-04-16 14:19 | 49.49282 | 11.86971 | 22957 ft | 453 kts | 109° |
| 2026-04-16 14:19 | 49.48227 | 11.91560 | 23386 ft | 456 kts | 109° |
| 2026-04-16 14:19 | 49.47163 | 11.96174 | 23805 ft | 459 kts | 109° |
| 2026-04-16 14:20 | 49.46105 | 12.00748 | 24135 ft | 461 kts | 109° |
| 2026-04-16 14:20 | 49.45011 | 12.05464 | 24469 ft | 464 kts | 109° |
| 2026-04-16 14:20 | 49.43934 | 12.10087 | 24787 ft | 467 kts | 109° |
| 2026-04-16 14:20 | 49.42838 | 12.14791 | 25114 ft | 469 kts | 109° |
| 2026-04-16 14:21 | 49.41735 | 12.19523 | 25204 ft | 473 kts | 109° |
| 2026-04-16 14:21 | 49.40613 | 12.24320 | 25226 ft | 479 kts | 109° |
| 2026-04-16 14:21 | 49.39485 | 12.29148 | 25222 ft | 481 kts | 109° |
| 2026-04-16 14:21 | 49.38353 | 12.33981 | 25221 ft | 481 kts | 109° |
| 2026-04-16 14:22 | 49.37219 | 12.38802 | 25222 ft | 481 kts | 109° |
| 2026-04-16 14:22 | 49.36078 | 12.43634 | 25223 ft | 481 kts | 110° |
| 2026-04-16 14:22 | 49.34914 | 12.48443 | 25218 ft | 481 kts | 112° |
| 2026-04-16 14:22 | 49.33404 | 12.53017 | 25218 ft | 481 kts | 123° |
| 2026-04-16 14:23 | 49.31312 | 12.57000 | 25228 ft | 478 kts | 138° |
| 2026-04-16 14:23 | 49.29599 | 12.59184 | 25223 ft | 474 kts | 148° |
| 2026-04-16 14:23 | 49.26763 | 12.61569 | 25215 ft | 470 kts | 158° |
| 2026-04-16 14:23 | 49.23793 | 12.63657 | 25217 ft | 469 kts | 159° |
| 2026-04-16 14:24 | 49.20816 | 12.65697 | 25210 ft | 469 kts | 159° |
| 2026-04-16 14:24 | 49.17827 | 12.67715 | 25223 ft | 469 kts | 159° |
| 2026-04-16 14:24 | 49.14848 | 12.69727 | 25222 ft | 469 kts | 159° |
| 2026-04-16 14:24 | 49.11870 | 12.71745 | 25222 ft | 469 kts | 159° |
| 2026-04-16 14:25 | 49.08891 | 12.73770 | 25215 ft | 469 kts | 159° |
| 2026-04-16 14:25 | 49.05910 | 12.75797 | 25217 ft | 469 kts | 159° |
| 2026-04-16 14:25 | 49.02932 | 12.77826 | 25216 ft | 469 kts | 159° |
| 2026-04-16 14:25 | 48.99953 | 12.79860 | 25220 ft | 469 kts | 159° |
| 2026-04-16 14:26 | 48.96969 | 12.81894 | 25224 ft | 469 kts | 159° |
| 2026-04-16 14:26 | 48.93987 | 12.83918 | 25223 ft | 469 kts | 159° |
| 2026-04-16 14:26 | 48.90999 | 12.85934 | 25224 ft | 469 kts | 159° |
| 2026-04-16 14:26 | 48.88016 | 12.87939 | 25223 ft | 469 kts | 159° |
| 2026-04-16 14:27 | 48.85035 | 12.89948 | 25226 ft | 469 kts | 159° |
| 2026-04-16 14:27 | 48.82055 | 12.91964 | 25232 ft | 469 kts | 159° |
| 2026-04-16 14:27 | 48.79074 | 12.93984 | 25218 ft | 469 kts | 159° |
| 2026-04-16 14:27 | 48.76093 | 12.95999 | 25214 ft | 469 kts | 159° |
| 2026-04-16 14:28 | 48.73114 | 12.98002 | 25228 ft | 469 kts | 159° |
| 2026-04-16 14:28 | 48.70127 | 13.00004 | 25221 ft | 469 kts | 159° |
| 2026-04-16 14:28 | 48.67142 | 13.02002 | 25224 ft | 469 kts | 159° |
| 2026-04-16 14:28 | 48.64163 | 13.03993 | 25224 ft | 469 kts | 159° |
| 2026-04-16 14:29 | 48.61176 | 13.05986 | 25233 ft | 469 kts | 159° |
| 2026-04-16 14:29 | 48.58193 | 13.07972 | 25231 ft | 469 kts | 159° |
| 2026-04-16 14:29 | 48.55209 | 13.09957 | 25222 ft | 469 kts | 159° |
| 2026-04-16 14:29 | 48.52272 | 13.12119 | 25227 ft | 471 kts | 152° |
| 2026-04-16 14:30 | 48.49571 | 13.14929 | 25235 ft | 473 kts | 142° |
| 2026-04-16 14:30 | 48.47197 | 13.18353 | 25236 ft | 475 kts | 132° |
| 2026-04-16 14:30 | 48.45199 | 13.22315 | 25236 ft | 475 kts | 124° |
| 2026-04-16 14:30 | 48.43543 | 13.26618 | 25238 ft | 473 kts | 115° |
| 2026-04-16 14:31 | 48.42332 | 13.31173 | 25252 ft | 467 kts | 107° |
| 2026-04-16 14:31 | 48.41597 | 13.35910 | 25249 ft | 464 kts | 97° |
| 2026-04-16 14:31 | 48.41358 | 13.40739 | 25117 ft | 462 kts | 89° |
| 2026-04-16 14:31 | 48.41369 | 13.45604 | 23888 ft | 472 kts | 88° |
| 2026-04-16 14:32 | 48.41404 | 13.50595 | 22480 ft | 481 kts | 88° |
| 2026-04-16 14:32 | 48.41449 | 13.55634 | 21491 ft | 480 kts | 88° |
| 2026-04-16 14:32 | 48.41488 | 13.60559 | 20696 ft | 475 kts | 88° |
| 2026-04-16 14:32 | 48.41516 | 13.65507 | 19947 ft | 470 kts | 88° |
| 2026-04-16 14:33 | 48.41537 | 13.70400 | 19236 ft | 465 kts | 88° |
| 2026-04-16 14:33 | 48.41553 | 13.75233 | 18552 ft | 460 kts | 89° |
| 2026-04-16 14:33 | 48.41564 | 13.80089 | 17785 ft | 455 kts | 89° |
| 2026-04-16 14:33 | 48.41573 | 13.84761 | 17090 ft | 450 kts | 89° |
| 2026-04-16 14:34 | 48.41580 | 13.89439 | 16410 ft | 444 kts | 89° |
| 2026-04-16 14:34 | 48.41584 | 13.94063 | 15769 ft | 439 kts | 89° |
| 2026-04-16 14:34 | 48.41585 | 13.98630 | 15138 ft | 434 kts | 89° |
| 2026-04-16 14:34 | 48.41582 | 14.03150 | 14518 ft | 430 kts | 90° |
| 2026-04-16 14:35 | 48.41190 | 14.07583 | 13916 ft | 426 kts | 104° |
| 2026-04-16 14:35 | 48.40128 | 14.11712 | 13262 ft | 422 kts | 118° |
| 2026-04-16 14:35 | 48.38468 | 14.15313 | 12628 ft | 417 kts | 132° |
| 2026-04-16 14:35 | 48.36335 | 14.18209 | 11965 ft | 412 kts | 144° |
| 2026-04-16 14:36 | 48.34134 | 14.20933 | 11325 ft | 407 kts | 131° |
| 2026-04-16 14:36 | 48.32706 | 14.24525 | 10696 ft | 400 kts | 109° |
| 2026-04-16 14:36 | 48.32136 | 14.28577 | 9996 ft | 395 kts | 93° |
| 2026-04-16 14:36 | 48.32190 | 14.32655 | 9249 ft | 389 kts | 84° |
| 2026-04-16 14:37 | 48.32360 | 14.36705 | 8424 ft | 388 kts | 85° |
| 2026-04-16 14:37 | 48.32482 | 14.40763 | 7649 ft | 386 kts | 86° |
| 2026-04-16 14:37 | 48.32583 | 14.44764 | 6937 ft | 382 kts | 87° |
| 2026-04-16 14:37 | 48.32680 | 14.48741 | 6149 ft | 379 kts | 87° |
| 2026-04-16 14:38 | 48.32785 | 14.52703 | 5350 ft | 377 kts | 87° |
| 2026-04-16 14:38 | 48.32506 | 14.56525 | 4645 ft | 372 kts | 108° |
| 2026-04-16 14:38 | 48.31191 | 14.59785 | 4128 ft | 361 kts | 137° |
| 2026-04-16 14:38 | 48.29106 | 14.61688 | 3990 ft | 337 kts | 166° |
| 2026-04-16 14:39 | 48.26909 | 14.61855 | 4000 ft | 310 kts | 196° |
| 2026-04-16 14:39 | 48.25105 | 14.60471 | 4002 ft | 281 kts | 228° |
| 2026-04-16 14:39 | 48.24204 | 14.58083 | 4006 ft | 254 kts | 262° |
| 2026-04-16 14:39 | 48.24330 | 14.55577 | 4009 ft | 233 kts | 284° |
| 2026-04-16 14:40 | 48.24491 | 14.53252 | 4005 ft | 218 kts | 269° |
| 2026-04-16 14:40 | 48.24401 | 14.51008 | 4009 ft | 212 kts | 268° |
| 2026-04-16 14:40 | 48.24316 | 14.48825 | 4009 ft | 204 kts | 269° |
| 2026-04-16 14:40 | 48.24247 | 14.46808 | 4031 ft | 181 kts | 269° |
| 2026-04-16 14:41 | 48.24190 | 14.45056 | 4019 ft | 154 kts | 269° |
| 2026-04-16 14:41 | 48.24141 | 14.43528 | 3933 ft | 140 kts | 270° |
| 2026-04-16 14:41 | 48.24096 | 14.42107 | 3793 ft | 135 kts | 271° |
| 2026-04-16 14:41 | 48.24051 | 14.40694 | 3632 ft | 135 kts | 271° |
| 2026-04-16 14:42 | 48.24006 | 14.39292 | 3465 ft | 135 kts | 270° |
| 2026-04-16 14:42 | 48.23960 | 14.37881 | 3289 ft | 135 kts | 270° |
| 2026-04-16 14:42 | 48.23915 | 14.36492 | 3110 ft | 133 kts | 270° |
| 2026-04-16 14:42 | 48.23870 | 14.35115 | 2934 ft | 132 kts | 271° |
| 2026-04-16 14:43 | 48.23825 | 14.33746 | 2769 ft | 132 kts | 270° |
| 2026-04-16 14:43 | 48.23779 | 14.32375 | 2570 ft | 131 kts | 271° |
| 2026-04-16 14:43 | 48.23734 | 14.31019 | 2398 ft | 131 kts | 270° |
| 2026-04-16 14:43 | 48.23690 | 14.29671 | 2229 ft | 130 kts | 271° |
| 2026-04-16 14:44 | 48.23645 | 14.28313 | 2055 ft | 131 kts | 271° |
| 2026-04-16 14:44 | 48.23599 | 14.26955 | 1867 ft | 129 kts | 270° |
| 2026-04-16 14:44 | 48.23552 | 14.25611 | 1620 ft | 128 kts | 269° |
| 2026-04-16 14:44 | 48.23512 | 14.24263 | 1436 ft | 130 kts | 268° |
| 2026-04-16 14:45 | 48.23452 | 14.22915 | 1310 ft | 129 kts | 267° |
| 2026-04-16 14:45 | 48.23407 | 14.21579 | 1108 ft | 127 kts | 268° |
| 2026-04-16 14:45 | 48.23414 | 14.20264 | 1024 ft | 126 kts | 260° |
| 2026-04-16 14:45 | 48.23330 | 14.19103 | 987 ft | 63 kts | 267° |
| 2026-04-16 14:46 | 48.23275 | 14.18835 | 987 ft | 19 kts | 182° |
| 2026-04-16 14:46 | 48.23134 | 14.18842 | 993 ft | 16 kts | 170° |
| 2026-04-16 14:46 | 48.23117 | 14.18847 | 988 ft | 0 kts | 170° |